Celtic Voyager — EIQN — position and weather

sailwx.info

Track history (hours):
 
Tides and Currents Weather Stations Pressure Air Temp Water Temp Dewpoint Dewpoint Depression Visibility Wind Speed Wind Dir Waves Ship Positions

Oceanographic research ship Celtic Voyager (Ireland)

Detailed information on ship capabilities available from University of Delaware's Ocean Information Center.

Last reported at 2017-Sep-24 16:56 UTC. Time now 2017-Sep-24 17:24 UTC.
Position N 52°15' W 006°20'.

Length 31 m; beam 8 m.

Type: Ship. MMSI: 250089000.

Date/timePositionNaut miles runAvg speedWind from/ knotsBaromVisibWave heightAir tempDewpointWater temp
2017-Sep-24 16:56N 52°15' W 006°20'0 0.0
2017-Sep-24 16:26N 52°15' W 006°20'0 0.0
2017-Sep-24 15:59N 52°15' W 006°20'0 0.0
2017-Sep-24 15:26N 52°15' W 006°20'0 0.0
2017-Sep-24 14:56N 52°15' W 006°20'0 0.0
2017-Sep-24 14:26N 52°15' W 006°20'0 0.0
2017-Sep-24 13:59N 52°15' W 006°20'0 0.0
2017-Sep-24 13:26N 52°15' W 006°20'0 0.0
2017-Sep-24 12:56N 52°15' W 006°20'0 0.0
2017-Sep-24 12:29N 52°15' W 006°20'0 0.0
2017-Sep-24 11:59N 52°15' W 006°20'0 0.0
2017-Sep-24 11:26N 52°15' W 006°20'0 0.0
2017-Sep-24 10:56N 52°15' W 006°20'0 0.0
2017-Sep-24 10:29N 52°15' W 006°20'0 0.0
2017-Sep-24 09:56N 52°15' W 006°20'0 0.0
2017-Sep-24 09:29N 52°15' W 006°20'0 0.0
2017-Sep-24 08:59N 52°15' W 006°20'0 0.0
2017-Sep-24 08:29N 52°15' W 006°20'0 0.0
2017-Sep-24 07:56N 52°15' W 006°20'0 0.0
2017-Sep-24 07:29N 52°15' W 006°20'0 0.0
2017-Sep-24 06:59N 52°15' W 006°20'0 0.0
2017-Sep-24 06:29N 52°15' W 006°20'0 0.0
2017-Sep-24 05:59N 52°15' W 006°20'0 0.0
2017-Sep-24 05:23N 52°15' W 006°20'0 0.0
2017-Sep-24 04:59N 52°15' W 006°20'0 0.0
2017-Sep-24 04:29N 52°15' W 006°20'0 0.0
2017-Sep-24 03:56N 52°15' W 006°20'0 0.0
2017-Sep-24 03:29N 52°15' W 006°20'0 0.0
2017-Sep-24 02:59N 52°15' W 006°20'0 0.0
2017-Sep-24 02:29N 52°15' W 006°20'0 0.0
2017-Sep-24 01:59N 52°15' W 006°20'0 0.0
2017-Sep-24 01:29N 52°15' W 006°20'0 0.0
2017-Sep-24 00:59N 52°15' W 006°20'0 0.0
2017-Sep-24 00:29N 52°15' W 006°20'0 0.0
2017-Sep-23 23:56N 52°15' W 006°20'0 0.0
2017-Sep-23 23:26N 52°15' W 006°20'0 0.0
2017-Sep-23 22:56N 52°15' W 006°20'0 0.0
2017-Sep-23 22:26N 52°15' W 006°20'0 0.0
2017-Sep-23 21:56N 52°15' W 006°20'0 0.0
2017-Sep-23 21:29N 52°15' W 006°20'0 0.0
2017-Sep-23 20:56N 52°15' W 006°20'0 0.0
2017-Sep-23 20:26N 52°15' W 006°20'0 0.0
2017-Sep-23 19:59N 52°15' W 006°20'81 1.9
2017-Sep-22 00:47N 51°54' W 008°28'0 0.0
2017-Sep-22 00:17N 51°54' W 008°28'0 0.0
2017-Sep-21 20:56N 51°54' W 008°28'0 0.0
2017-Sep-21 18:08N 51°54' W 008°28'0 0.0
2017-Sep-21 17:50N 51°54' W 008°28'0 0.0
2017-Sep-21 17:26N 51°54' W 008°28'0 0.0
2017-Sep-21 16:50N 51°54' W 008°28'0 0.0
2017-Sep-21 16:23N 51°54' W 008°28'1 1.9
2017-Sep-21 16:00N 51°54' W 008°26'4 8.1
2017-Sep-21 15:30N 51°53' W 008°20'4 7.2
2017-Sep-21 15:00N 51°50' W 008°16'5 9.3
2017-Sep-21 14:30N 51°46' W 008°14'4 8.7
2017-Sep-21 14:00N 51°44' W 008°08'4 8.7
2017-Sep-21 13:30N 51°42' W 008°01'5 9.0
2017-Sep-21 13:00N 51°41' W 007°54'5 9.2
2017-Sep-21 12:30N 51°39' W 007°47'5 9.1
2017-Sep-21 12:00N 51°37' W 007°41'5 9.3
2017-Sep-21 11:30N 51°36' W 007°34'5 9.3
2017-Sep-21 11:00N 51°34' W 007°27'5 9.3
2017-Sep-21 10:29N 51°32' W 007°20'6 9.2
2017-Sep-21 09:52N 51°30' W 007°11'4 0.1
2017-Sep-20 01:40N 51°31' W 007°05'1 4.9
2017-Sep-20 01:29N 51°31' W 007°04'3 6.1
2017-Sep-20 01:00N 51°31' W 006°59'3 5.1
2017-Sep-20 00:30N 51°31' W 006°55'3 6.2
2017-Sep-19 23:59N 51°31' W 006°50'6 6.5
2017-Sep-19 23:05N 51°32' W 006°59'3 7.0
2017-Sep-19 22:42N 51°32' W 007°04'1 3.3
2017-Sep-19 22:30N 51°32' W 007°05'4 7.4
2017-Sep-19 22:00N 51°32' W 006°58'4 7.7
2017-Sep-19 21:30N 51°32' W 006°52'1 1.6
2017-Sep-19 20:55N 51°32' W 006°54'7 7.7
2017-Sep-19 20:03N 51°32' W 007°05'2 7.8
2017-Sep-19 19:49N 51°32' W 007°02'4 7.7
2017-Sep-19 19:22N 51°32' W 006°56'4 1.9
2017-Sep-19 17:10N 51°32' W 007°03'5 6.7
2017-Sep-19 16:24N 51°32' W 006°55'5 2.8
2017-Sep-19 14:34N 51°33' W 007°03'2 8.4
2017-Sep-19 14:17N 51°33' W 006°59'3 8.0
2017-Sep-19 13:58N 51°33' W 006°55'19 2.9
2017-Sep-19 07:36N 51°40' W 006°27'  
Track history (hours):
 
Tides and Currents Weather Stations Pressure Air Temp Water Temp Dewpoint Dewpoint Depression Visibility Wind Speed Wind Dir Waves Ship Positions

Oceanographic research ship Celtic Voyager (Ireland)

Detailed information on ship capabilities available from University of Delaware's Ocean Information Center.

Last reported at 2017-Sep-24 16:56 UTC. Time now 2017-Sep-24 17:24 UTC.
Position N 52°15' W 006°20'.

Length 31 m; beam 8 m.

Type: Ship. MMSI: 250089000.

Date/timePositionNaut miles runAvg speedWind from/ knotsBaromVisibWave heightAir tempDewpointWater temp
2017-Sep-24 16:56N 52°15' W 006°20'0 0.0
2017-Sep-24 16:26N 52°15' W 006°20'0 0.0
2017-Sep-24 15:59N 52°15' W 006°20'0 0.0
2017-Sep-24 15:26N 52°15' W 006°20'0 0.0
2017-Sep-24 14:56N 52°15' W 006°20'0 0.0
2017-Sep-24 14:26N 52°15' W 006°20'0 0.0
2017-Sep-24 13:59N 52°15' W 006°20'0 0.0
2017-Sep-24 13:26N 52°15' W 006°20'0 0.0
2017-Sep-24 12:56N 52°15' W 006°20'0 0.0
2017-Sep-24 12:29N 52°15' W 006°20'0 0.0
2017-Sep-24 11:59N 52°15' W 006°20'0 0.0
2017-Sep-24 11:26N 52°15' W 006°20'0 0.0
2017-Sep-24 10:56N 52°15' W 006°20'0 0.0
2017-Sep-24 10:29N 52°15' W 006°20'0 0.0
2017-Sep-24 09:56N 52°15' W 006°20'0 0.0
2017-Sep-24 09:29N 52°15' W 006°20'0 0.0
2017-Sep-24 08:59N 52°15' W 006°20'0 0.0
2017-Sep-24 08:29N 52°15' W 006°20'0 0.0
2017-Sep-24 07:56N 52°15' W 006°20'0 0.0
2017-Sep-24 07:29N 52°15' W 006°20'0 0.0
2017-Sep-24 06:59N 52°15' W 006°20'0 0.0
2017-Sep-24 06:29N 52°15' W 006°20'0 0.0
2017-Sep-24 05:59N 52°15' W 006°20'0 0.0
2017-Sep-24 05:23N 52°15' W 006°20'0 0.0
2017-Sep-24 04:59N 52°15' W 006°20'0 0.0
2017-Sep-24 04:29N 52°15' W 006°20'0 0.0
2017-Sep-24 03:56N 52°15' W 006°20'0 0.0
2017-Sep-24 03:29N 52°15' W 006°20'0 0.0
2017-Sep-24 02:59N 52°15' W 006°20'0 0.0
2017-Sep-24 02:29N 52°15' W 006°20'0 0.0
2017-Sep-24 01:59N 52°15' W 006°20'0 0.0
2017-Sep-24 01:29N 52°15' W 006°20'0 0.0
2017-Sep-24 00:59N 52°15' W 006°20'0 0.0
2017-Sep-24 00:29N 52°15' W 006°20'0 0.0
2017-Sep-23 23:56N 52°15' W 006°20'0 0.0
2017-Sep-23 23:26N 52°15' W 006°20'0 0.0
2017-Sep-23 22:56N 52°15' W 006°20'0 0.0
2017-Sep-23 22:26N 52°15' W 006°20'0 0.0
2017-Sep-23 21:56N 52°15' W 006°20'0 0.0
2017-Sep-23 21:29N 52°15' W 006°20'0 0.0
2017-Sep-23 20:56N 52°15' W 006°20'0 0.0
2017-Sep-23 20:26N 52°15' W 006°20'0 0.0
2017-Sep-23 19:59N 52°15' W 006°20'81 1.9
2017-Sep-22 00:47N 51°54' W 008°28'0 0.0
2017-Sep-22 00:17N 51°54' W 008°28'0 0.0
2017-Sep-21 20:56N 51°54' W 008°28'0 0.0
2017-Sep-21 18:08N 51°54' W 008°28'0 0.0
2017-Sep-21 17:50N 51°54' W 008°28'0 0.0
2017-Sep-21 17:26N 51°54' W 008°28'0 0.0
2017-Sep-21 16:50N 51°54' W 008°28'0 0.0
2017-Sep-21 16:23N 51°54' W 008°28'1 1.9
2017-Sep-21 16:00N 51°54' W 008°26'4 8.1
2017-Sep-21 15:30N 51°53' W 008°20'4 7.2
2017-Sep-21 15:00N 51°50' W 008°16'5 9.3
2017-Sep-21 14:30N 51°46' W 008°14'4 8.7
2017-Sep-21 14:00N 51°44' W 008°08'4 8.7
2017-Sep-21 13:30N 51°42' W 008°01'5 9.0
2017-Sep-21 13:00N 51°41' W 007°54'5 9.2
2017-Sep-21 12:30N 51°39' W 007°47'5 9.1
2017-Sep-21 12:00N 51°37' W 007°41'5 9.3
2017-Sep-21 11:30N 51°36' W 007°34'5 9.3
2017-Sep-21 11:00N 51°34' W 007°27'5 9.3
2017-Sep-21 10:29N 51°32' W 007°20'6 9.2
2017-Sep-21 09:52N 51°30' W 007°11'4 0.1
2017-Sep-20 01:40N 51°31' W 007°05'1 4.9
2017-Sep-20 01:29N 51°31' W 007°04'3 6.1
2017-Sep-20 01:00N 51°31' W 006°59'3 5.1
2017-Sep-20 00:30N 51°31' W 006°55'3 6.2
2017-Sep-19 23:59N 51°31' W 006°50'6 6.5
2017-Sep-19 23:05N 51°32' W 006°59'3 7.0
2017-Sep-19 22:42N 51°32' W 007°04'1 3.3
2017-Sep-19 22:30N 51°32' W 007°05'4 7.4
2017-Sep-19 22:00N 51°32' W 006°58'4 7.7
2017-Sep-19 21:30N 51°32' W 006°52'1 1.6
2017-Sep-19 20:55N 51°32' W 006°54'7 7.7
2017-Sep-19 20:03N 51°32' W 007°05'2 7.8
2017-Sep-19 19:49N 51°32' W 007°02'4 7.7
2017-Sep-19 19:22N 51°32' W 006°56'4 1.9
2017-Sep-19 17:10N 51°32' W 007°03'5 6.7
2017-Sep-19 16:24N 51°32' W 006°55'5 2.8
2017-Sep-19 14:34N 51°33' W 007°03'2 8.4
2017-Sep-19 14:17N 51°33' W 006°59'3 8.0
2017-Sep-19 13:58N 51°33' W 006°55'19 2.9
2017-Sep-19 07:36N 51°40' W 006°27'  

Dump ship's entire track history